Time;durP1;ratioP1;P1;durP2;ratioP2;P2;SDS_P1;SDS_P2;PMS_P1;PMS_P2;Temp;Humidity;BMP_temperature;BMP_pressure;BME280_temperature;BME280_humidity;BME280_pressure;Samples;Min_cycle;Max_cycle;Signal;HPM_P1;HPM_P2
2024/01/01 00:02:10;;;;;;;211.73;67.13;;;;;;;;;;5034132;28;20446;-45
2024/01/01 00:04:36;;;;;;;210.37;65.37;;;;;;;;;;5035010;28;20551;-45
2024/01/01 00:07:02;;;;;;;214.48;70.32;;;;;;;;;;5029293;28;20430;-45
2024/01/01 00:09:28;;;;;;;211.37;67.90;;;;;;;;;;5015342;28;20203;-44
2024/01/01 00:11:54;;;;;;;208.67;65.13;;;;;;;;;;5034577;28;20398;-45
2024/01/01 00:14:20;;;;;;;209.53;66.43;;;;;;;;;;5016627;28;20414;-45
2024/01/01 00:16:46;;;;;;;209.98;64.68;;;;;;;;;;5029337;28;20490;-45
2024/01/01 00:19:12;;;;;;;207.47;64.33;;;;;;;;;;5033913;28;20297;-45
2024/01/01 00:21:38;;;;;;;208.52;66.10;;;;;;;;;;5030828;28;20895;-45
2024/01/01 00:24:04;;;;;;;210.25;68.53;;;;;;;;;;5034332;28;20202;-45
2024/01/01 00:26:30;;;;;;;212.55;66.80;;;;;;;;;;5022861;28;20260;-45
2024/01/01 00:28:56;;;;;;;213.00;68.20;;;;;;;;;;5033872;28;20282;-45
2024/01/01 00:31:22;;;;;;;209.47;66.57;;;;;;;;;;5033548;28;20472;-45
2024/01/01 00:33:48;;;;;;;213.37;68.03;;;;;;;;;;5050544;28;20409;-45
2024/01/01 00:36:14;;;;;;;212.87;70.77;;;;;;;;;;5040392;28;20442;-45
2024/01/01 00:38:40;;;;;;;210.40;66.17;;;;;;;;;;5033681;28;20410;-45
2024/01/01 00:41:06;;;;;;;199.65;63.80;;;;;;;;;;5034090;28;20407;-45
2024/01/01 00:43:33;;;;;;;211.97;69.40;;;;;;;;;;5033952;28;20234;-45
2024/01/01 00:45:59;;;;;;;209.90;69.50;;;;;;;;;;5033697;28;20533;-45
2024/01/01 00:48:25;;;;;;;207.83;66.67;;;;;;;;;;5033706;28;20708;-44
2024/01/01 00:50:51;;;;;;;188.80;63.77;;;;;;;;;;5033591;28;20825;-45
2024/01/01 00:53:17;;;;;;;203.13;70.20;;;;;;;;;;5033796;28;20446;-45
2024/01/01 00:55:43;;;;;;;210.23;69.55;;;;;;;;;;5033565;28;20429;-45
2024/01/01 00:58:09;;;;;;;209.20;69.72;;;;;;;;;;5033658;28;20183;-45
2024/01/01 01:00:35;;;;;;;209.00;70.73;;;;;;;;;;5033054;28;20210;-45
2024/01/01 01:03:01;;;;;;;207.97;67.60;;;;;;;;;;5031750;28;20556;-45
2024/01/01 01:05:27;;;;;;;205.80;68.70;;;;;;;;;;5033170;28;20789;-45
2024/01/01 01:07:53;;;;;;;206.73;68.82;;;;;;;;;;5033600;28;20417;-44
2024/01/01 01:10:19;;;;;;;46.77;25.83;;;;;;;;;;5032875;28;20211;-45
2024/01/01 01:12:45;;;;;;;187.13;65.40;;;;;;;;;;5033504;28;20504;-44
2024/01/01 01:15:11;;;;;;;47.60;27.70;;;;;;;;;;5033052;28;20305;-45
2024/01/01 01:20:40;;;;;;;198.93;66.78;;;;;;;;;;5021341;28;20862;-45
2024/01/01 01:23:06;;;;;;;206.50;69.53;;;;;;;;;;5032884;28;20175;-45
2024/01/01 01:25:32;;;;;;;197.85;65.30;;;;;;;;;;5032858;28;20794;-45
2024/01/01 01:27:59;;;;;;;199.70;68.03;;;;;;;;;;5033221;28;20179;-45
2024/01/01 01:30:24;;;;;;;130.98;49.55;;;;;;;;;;5032676;28;20466;-45
2024/01/01 01:32:50;;;;;;;17.20;16.00;;;;;;;;;;5033045;28;20473;-45
2024/01/01 01:35:17;;;;;;;17.87;16.60;;;;;;;;;;5032558;28;20418;-45
2024/01/01 01:37:44;;;;;;;18.55;17.27;;;;;;;;;;5032873;28;20785;-45
2024/01/01 01:40:10;;;;;;;16.67;15.48;;;;;;;;;;5032427;28;20256;-45
2024/01/01 01:42:36;;;;;;;18.75;17.45;;;;;;;;;;5032779;28;20258;-45
2024/01/01 01:45:02;;;;;;;199.98;66.30;;;;;;;;;;5032217;28;20245;-45
2024/01/01 01:47:29;;;;;;;203.48;69.35;;;;;;;;;;5032658;28;20221;-46
2024/01/01 01:49:55;;;;;;;205.27;69.22;;;;;;;;;;5032110;28;20207;-45
2024/01/01 01:52:21;;;;;;;198.50;65.65;;;;;;;;;;5032557;28;20233;-45
2024/01/01 01:54:47;;;;;;;200.52;67.72;;;;;;;;;;5032746;28;20202;-45
2024/01/01 01:57:14;;;;;;;201.48;68.38;;;;;;;;;;5032402;28;20647;-44
2024/01/01 01:59:42;;;;;;;201.18;69.00;;;;;;;;;;5032058;28;20210;-45
2024/01/01 02:02:08;;;;;;;20.42;18.98;;;;;;;;;;5031754;28;20178;-45
2024/01/01 02:04:34;;;;;;;24.70;22.63;;;;;;;;;;5031607;28;20187;-45
2024/01/01 02:07:00;;;;;;;161.03;58.47;;;;;;;;;;5031772;28;20274;-44
2024/01/01 02:09:26;;;;;;;123.90;45.90;;;;;;;;;;5031621;28;20464;-45
2024/01/01 02:11:52;;;;;;;203.10;66.40;;;;;;;;;;5032237;28;20468;-46
2024/01/01 02:14:18;;;;;;;197.80;65.00;;;;;;;;;;5032137;28;20554;-45
2024/01/01 02:16:44;;;;;;;198.75;66.85;;;;;;;;;;5033043;28;20410;-45
2024/01/01 02:19:16;;;;;;;203.13;67.97;;;;;;;;;;5032039;28;20325;-46
2024/01/01 02:21:42;;;;;;;202.68;66.18;;;;;;;;;;5032441;28;20184;-46
2024/01/01 02:24:08;;;;;;;201.27;65.63;;;;;;;;;;5032175;28;20183;-45
2024/01/01 02:26:35;;;;;;;203.87;70.77;;;;;;;;;;5032337;28;20410;-47
2024/01/01 02:29:01;;;;;;;198.52;64.53;;;;;;;;;;5031850;28;20473;-45
2024/01/01 02:31:27;;;;;;;201.40;66.60;;;;;;;;;;5032105;28;20258;-45
2024/01/01 02:33:53;;;;;;;205.90;73.53;;;;;;;;;;5032151;28;20207;-47
2024/01/01 02:36:19;;;;;;;202.33;66.20;;;;;;;;;;5032286;28;20423;-48
2024/01/01 02:38:45;;;;;;;201.80;64.87;;;;;;;;;;5031706;28;20445;-46
2024/01/01 02:41:11;;;;;;;204.43;65.27;;;;;;;;;;5031995;28;20448;-46
2024/01/01 02:43:37;;;;;;;206.07;66.37;;;;;;;;;;5032108;28;20785;-46
2024/01/01 02:46:03;;;;;;;166.90;55.47;;;;;;;;;;5031843;28;20837;-46
2024/01/01 02:48:28;;;;;;;214.50;69.03;;;;;;;;;;5031672;28;20491;-46
2024/01/01 02:50:55;;;;;;;210.27;65.10;;;;;;;;;;5031800;28;20247;-46
2024/01/01 02:53:21;;;;;;;209.15;64.15;;;;;;;;;;5031719;28;20417;-45
2024/01/01 02:55:46;;;;;;;151.63;47.80;;;;;;;;;;5031426;28;20182;-45
2024/01/01 02:58:12;;;;;;;58.73;25.43;;;;;;;;;;5031590;28;20757;-45
2024/01/01 03:00:38;;;;;;;14.73;13.30;;;;;;;;;;5031285;28;20456;-47
2024/01/01 03:03:05;;;;;;;177.27;52.07;;;;;;;;;;5031392;28;20421;-45
2024/01/01 03:05:31;;;;;;;205.30;59.20;;;;;;;;;;5031495;28;20428;-45
2024/01/01 03:07:56;;;;;;;207.88;57.78;;;;;;;;;;5031697;28;20181;-45
2024/01/01 03:10:22;;;;;;;183.40;51.50;;;;;;;;;;5024416;28;20259;-47
2024/01/01 03:12:48;;;;;;;187.33;55.77;;;;;;;;;;5031444;28;20444;-45
2024/01/01 03:15:14;;;;;;;180.50;53.07;;;;;;;;;;5031207;28;20410;-45
2024/01/01 03:17:41;;;;;;;175.48;50.25;;;;;;;;;;5031240;28;20926;-45
2024/01/01 03:20:09;;;;;;;165.25;47.33;;;;;;;;;;5026659;28;20278;-45
2024/01/01 03:22:35;;;;;;;153.40;43.83;;;;;;;;;;5027418;28;20181;-45
2024/01/01 03:25:01;;;;;;;177.63;50.37;;;;;;;;;;5031153;28;20184;-45
2024/01/01 03:27:27;;;;;;;182.15;50.97;;;;;;;;;;5031184;28;20852;-47
2024/01/01 03:29:53;;;;;;;156.70;46.53;;;;;;;;;;5030885;28;20283;-45
2024/01/01 03:32:19;;;;;;;208.70;56.80;;;;;;;;;;5031140;28;20411;-46
2024/01/01 03:34:45;;;;;;;146.93;45.28;;;;;;;;;;5031521;28;20547;-46
2024/01/01 03:37:11;;;;;;;136.07;43.23;;;;;;;;;;5031107;28;20170;-46
2024/01/01 03:39:37;;;;;;;126.43;38.50;;;;;;;;;;5031077;28;20424;-46
2024/01/01 03:42:03;;;;;;;64.47;25.47;;;;;;;;;;5028594;28;20781;-46
2024/01/01 03:44:29;;;;;;;101.25;35.63;;;;;;;;;;5031003;28;20408;-46
2024/01/01 03:46:55;;;;;;;161.93;46.80;;;;;;;;;;5031104;28;20201;-46
2024/01/01 03:49:21;;;;;;;205.63;56.22;;;;;;;;;;5039890;28;20449;-46
2024/01/01 03:51:47;;;;;;;158.45;46.03;;;;;;;;;;5043868;28;20265;-46
2024/01/01 03:54:14;;;;;;;189.83;50.93;;;;;;;;;;5031087;28;20161;-47
2024/01/01 03:56:40;;;;;;;138.45;40.95;;;;;;;;;;5031193;28;20483;-46
2024/01/01 03:59:06;;;;;;;206.33;55.93;;;;;;;;;;5048828;28;20296;-47
2024/01/01 04:01:32;;;;;;;204.40;54.37;;;;;;;;;;5037130;28;20482;-47
2024/01/01 04:04:03;;;;;;;39.30;17.53;;;;;;;;;;5041221;28;20848;-47
2024/01/01 04:06:29;;;;;;;137.52;42.85;;;;;;;;;;5041166;28;20440;-47
2024/01/01 04:08:55;;;;;;;122.93;37.77;;;;;;;;;;5032118;28;20215;-47
2024/01/01 04:11:21;;;;;;;146.33;40.83;;;;;;;;;;5034600;28;20402;-48
2024/01/01 04:13:47;;;;;;;17.47;15.63;;;;;;;;;;5034142;28;20409;-46
2024/01/01 04:16:12;;;;;;;113.60;35.65;;;;;;;;;;5034522;28;20777;-47
2024/01/01 04:18:39;;;;;;;66.20;24.13;;;;;;;;;;5034247;28;20182;-45
2024/01/01 04:21:05;;;;;;;70.63;24.42;;;;;;;;;;5034282;28;20419;-47
2024/01/01 04:23:31;;;;;;;136.57;40.40;;;;;;;;;;5034276;28;20182;-47
2024/01/01 04:25:57;;;;;;;195.20;55.77;;;;;;;;;;5034316;28;20410;-47
2024/01/01 04:28:23;;;;;;;158.30;48.30;;;;;;;;;;5033733;28;20416;-46
2024/01/01 04:30:49;;;;;;;177.73;52.17;;;;;;;;;;5034358;28;20523;-46
2024/01/01 04:33:14;;;;;;;62.43;25.20;;;;;;;;;;5033983;28;20903;-47
2024/01/01 04:35:40;;;;;;;134.20;39.23;;;;;;;;;;5034128;28;20415;-47
2024/01/01 04:38:06;;;;;;;153.50;50.03;;;;;;;;;;5033840;28;20936;-46
2024/01/01 04:40:32;;;;;;;169.40;54.57;;;;;;;;;;5033794;28;20433;-46
2024/01/01 04:42:59;;;;;;;201.18;57.88;;;;;;;;;;5033696;28;20413;-46
2024/01/01 04:45:25;;;;;;;105.07;34.78;;;;;;;;;;5033786;28;20289;-46
2024/01/01 04:47:51;;;;;;;189.95;59.97;;;;;;;;;;5033647;28;20522;-46
2024/01/01 04:50:17;;;;;;;210.95;62.58;;;;;;;;;;5033519;28;20587;-46
2024/01/01 04:52:43;;;;;;;15.07;13.87;;;;;;;;;;5033896;28;20167;-46
2024/01/01 04:55:10;;;;;;;177.07;54.37;;;;;;;;;;5033582;28;20613;-46
2024/01/01 04:57:36;;;;;;;173.32;53.08;;;;;;;;;;5033465;28;20416;-46
2024/01/01 05:00:02;;;;;;;186.30;52.93;;;;;;;;;;5033123;28;20213;-46
2024/01/01 05:02:28;;;;;;;40.00;37.40;;;;;;;;;;5033436;28;20403;-46
2024/01/01 05:04:54;;;;;;;162.33;52.33;;;;;;;;;;5033487;28;20179;-46
2024/01/01 05:07:20;;;;;;;51.57;37.87;;;;;;;;;;5033408;28;20500;-46
2024/01/01 05:09:46;;;;;;;130.03;48.03;;;;;;;;;;5033141;28;20457;-45
2024/01/01 05:12:16;;;;;;;210.50;60.00;;;;;;;;;;5033289;28;20501;-48
2024/01/01 05:14:42;;;;;;;213.07;62.55;;;;;;;;;;5033348;28;20430;-46
2024/01/01 05:17:08;;;;;;;212.20;62.97;;;;;;;;;;5033292;28;20554;-46
2024/01/01 05:19:34;;;;;;;217.32;65.65;;;;;;;;;;5032053;28;20429;-47
2024/01/01 05:22:03;;;;;;;210.43;62.43;;;;;;;;;;5031036;28;20183;-46
2024/01/01 05:24:29;;;;;;;215.15;64.03;;;;;;;;;;5032840;28;20398;-46
2024/01/01 05:26:55;;;;;;;156.97;49.17;;;;;;;;;;5031185;28;20196;-46
2024/01/01 05:29:21;;;;;;;193.63;60.13;;;;;;;;;;5032499;28;20468;-46
2024/01/01 05:31:47;;;;;;;176.13;54.03;;;;;;;;;;5032990;28;20920;-46
2024/01/01 05:34:16;;;;;;;195.80;58.00;;;;;;;;;;5032780;28;20175;-46
2024/01/01 05:36:42;;;;;;;23.27;21.38;;;;;;;;;;5016725;28;20425;-48
2024/01/01 05:39:08;;;;;;;36.83;21.50;;;;;;;;;;5030383;28;20249;-46
2024/01/01 05:41:34;;;;;;;17.67;16.27;;;;;;;;;;5032608;28;20418;-46
2024/01/01 05:44:01;;;;;;;128.47;47.97;;;;;;;;;;5032611;28;20449;-46
2024/01/01 05:46:27;;;;;;;149.02;51.47;;;;;;;;;;5032807;28;20467;-45
2024/01/01 05:48:53;;;;;;;19.60;18.07;;;;;;;;;;5032298;28;20205;-46
2024/01/01 05:51:19;;;;;;;35.70;22.83;;;;;;;;;;5032482;28;20451;-46
2024/01/01 05:53:45;;;;;;;183.83;61.53;;;;;;;;;;5032461;28;20429;-45
2024/01/01 05:56:10;;;;;;;201.57;67.07;;;;;;;;;;5032511;28;21028;-46
2024/01/01 05:58:36;;;;;;;145.13;50.47;;;;;;;;;;5031973;28;20437;-46
2024/01/01 06:01:03;;;;;;;17.90;16.53;;;;;;;;;;5032500;28;20492;-46
2024/01/01 06:03:29;;;;;;;23.80;22.13;;;;;;;;;;5032509;28;20416;-46
2024/01/01 06:05:55;;;;;;;21.55;19.92;;;;;;;;;;5032310;28;20562;-47
2024/01/01 06:08:21;;;;;;;21.05;19.52;;;;;;;;;;5032013;28;20814;-47
2024/01/01 06:10:47;;;;;;;107.38;42.80;;;;;;;;;;5045025;28;20202;-45
2024/01/01 06:13:14;;;;;;;172.10;56.67;;;;;;;;;;5042401;28;20181;-46
2024/01/01 06:15:40;;;;;;;209.00;67.57;;;;;;;;;;5037143;28;20170;-47
2024/01/01 06:18:06;;;;;;;172.95;57.97;;;;;;;;;;5051247;28;20641;-47
2024/01/01 06:20:32;;;;;;;205.38;67.20;;;;;;;;;;5032008;28;20199;-46
2024/01/01 06:22:58;;;;;;;207.53;68.47;;;;;;;;;;5049105;28;20187;-45
2024/01/01 06:25:24;;;;;;;188.15;61.75;;;;;;;;;;5039276;28;20420;-45
2024/01/01 06:27:50;;;;;;;20.83;19.33;;;;;;;;;;5040802;28;20276;-46
2024/01/01 06:30:17;;;;;;;16.93;15.63;;;;;;;;;;5046601;28;20459;-45
2024/01/01 06:32:42;;;;;;;22.83;21.27;;;;;;;;;;5032300;28;20471;-45
2024/01/01 06:35:08;;;;;;;21.77;20.27;;;;;;;;;;5051868;28;20650;-45
2024/01/01 06:37:34;;;;;;;19.73;18.27;;;;;;;;;;5035765;28;20888;-45
2024/01/01 06:40:00;;;;;;;19.57;18.23;;;;;;;;;;5031956;28;20965;-46
2024/01/01 06:42:26;;;;;;;22.10;20.50;;;;;;;;;;5039827;28;20776;-47
2024/01/01 06:44:53;;;;;;;21.40;19.90;;;;;;;;;;5047820;28;20175;-46
2024/01/01 06:47:22;;;;;;;21.27;19.80;;;;;;;;;;5031922;28;20399;-46
2024/01/01 06:49:48;;;;;;;22.90;21.33;;;;;;;;;;5011808;28;20699;-45
2024/01/01 06:52:13;;;;;;;19.33;17.93;;;;;;;;;;5044543;28;20274;-45
2024/01/01 06:54:40;;;;;;;19.37;18.07;;;;;;;;;;5039524;28;20521;-48
2024/01/01 06:57:06;;;;;;;18.33;17.08;;;;;;;;;;5039474;28;20512;-46
2024/01/01 06:59:31;;;;;;;21.37;19.87;;;;;;;;;;5047393;28;20656;-46
2024/01/01 07:01:58;;;;;;;20.17;18.70;;;;;;;;;;5031691;28;20467;-45
2024/01/01 07:04:25;;;;;;;19.77;18.38;;;;;;;;;;5050965;28;20409;-46
2024/01/01 07:06:51;;;;;;;18.77;17.48;;;;;;;;;;5035976;28;20197;-45
2024/01/01 07:09:17;;;;;;;20.35;18.95;;;;;;;;;;5042798;28;20195;-45
2024/01/01 07:11:44;;;;;;;18.80;17.40;;;;;;;;;;5043945;28;20181;-46
2024/01/01 07:14:10;;;;;;;17.45;16.13;;;;;;;;;;5034957;28;20420;-46
2024/01/01 07:16:36;;;;;;;18.13;16.80;;;;;;;;;;5051533;28;20177;-46
2024/01/01 07:19:02;;;;;;;17.90;16.53;;;;;;;;;;5031591;28;20437;-46
2024/01/01 07:21:28;;;;;;;124.50;41.17;;;;;;;;;;5046735;28;20413;-45
2024/01/01 07:23:54;;;;;;;197.65;61.28;;;;;;;;;;5039905;28;20936;-45
2024/01/01 07:26:20;;;;;;;77.50;28.60;;;;;;;;;;5038585;28;20181;-46
2024/01/01 07:28:46;;;;;;;197.30;56.90;;;;;;;;;;5048024;28;20944;-46
2024/01/01 07:31:12;;;;;;;207.87;60.07;;;;;;;;;;5024622;28;20467;-46
2024/01/01 07:33:38;;;;;;;210.63;58.63;;;;;;;;;;5031250;28;20425;-47
2024/01/01 07:36:11;;;;;;;208.37;57.17;;;;;;;;;;5031114;28;20413;-46
2024/01/01 07:38:39;;;;;;;203.27;57.55;;;;;;;;;;5031083;28;20415;-47
2024/01/01 07:41:05;;;;;;;206.13;56.13;;;;;;;;;;5031295;28;20193;-46
2024/01/01 07:43:32;;;;;;;209.67;57.37;;;;;;;;;;5034885;28;20545;-46
2024/01/01 07:45:58;;;;;;;209.18;58.92;;;;;;;;;;5034812;28;20416;-45
2024/01/01 07:48:24;;;;;;;184.13;58.30;;;;;;;;;;5034639;28;20177;-46
2024/01/01 07:50:50;;;;;;;211.77;59.60;;;;;;;;;;5034822;28;20535;-45
2024/01/01 07:53:16;;;;;;;141.93;49.93;;;;;;;;;;5034839;28;20232;-44
2024/01/01 07:55:42;;;;;;;78.40;30.35;;;;;;;;;;5034725;28;20420;-46
2024/01/01 07:58:08;;;;;;;195.60;58.27;;;;;;;;;;5034631;28;20183;-46
2024/01/01 08:00:34;;;;;;;150.77;48.77;;;;;;;;;;5033811;28;20971;-46
2024/01/01 08:02:59;;;;;;;184.70;55.47;;;;;;;;;;5034633;28;20976;-45
2024/01/01 08:05:25;;;;;;;131.87;48.50;;;;;;;;;;5034815;28;20549;-45
2024/01/01 08:07:51;;;;;;;208.77;60.43;;;;;;;;;;5034392;28;20413;-45
2024/01/01 08:10:18;;;;;;;206.43;57.67;;;;;;;;;;5034057;28;20457;-45
2024/01/01 08:12:44;;;;;;;189.60;56.30;;;;;;;;;;5034469;28;20955;-45
2024/01/01 08:15:10;;;;;;;189.10;55.60;;;;;;;;;;5034931;28;20187;-47
2024/01/01 08:17:36;;;;;;;208.60;61.80;;;;;;;;;;5034438;28;20183;-46
2024/01/01 08:20:02;;;;;;;194.32;59.75;;;;;;;;;;5034131;28;20436;-45
2024/01/01 08:22:28;;;;;;;193.98;64.15;;;;;;;;;;5034337;28;20181;-45
2024/01/01 08:24:54;;;;;;;129.43;46.35;;;;;;;;;;5034097;28;20606;-45
2024/01/01 08:27:20;;;;;;;89.35;35.78;;;;;;;;;;5034248;28;20633;-45
2024/01/01 08:29:46;;;;;;;173.97;52.53;;;;;;;;;;5033890;28;20209;-46
2024/01/01 08:32:12;;;;;;;205.23;60.47;;;;;;;;;;5034127;28;20909;-46
2024/01/01 08:34:38;;;;;;;21.83;20.47;;;;;;;;;;5034235;28;20905;-47
2024/01/01 08:37:04;;;;;;;174.87;53.37;;;;;;;;;;5034013;28;20416;-45
2024/01/01 08:39:30;;;;;;;200.90;59.08;;;;;;;;;;5040817;28;20432;-46
2024/01/01 08:41:56;;;;;;;137.48;44.22;;;;;;;;;;5053281;28;20217;-46
2024/01/01 08:44:22;;;;;;;159.87;52.23;;;;;;;;;;5054095;28;20204;-46
2024/01/01 08:46:48;;;;;;;178.30;58.13;;;;;;;;;;5053253;28;20421;-46
2024/01/01 08:49:14;;;;;;;161.13;50.33;;;;;;;;;;5038756;28;20469;-46
2024/01/01 08:51:40;;;;;;;166.87;53.33;;;;;;;;;;5044509;28;20492;-45
2024/01/01 08:54:07;;;;;;;195.40;56.70;;;;;;;;;;5046804;28;20924;-46
2024/01/01 08:56:33;;;;;;;202.95;59.40;;;;;;;;;;5036114;28;20986;-46
2024/01/01 08:58:59;;;;;;;207.32;61.58;;;;;;;;;;5053423;28;20202;-45
2024/01/01 09:01:25;;;;;;;201.13;57.40;;;;;;;;;;5035033;28;20543;-45
2024/01/01 09:03:51;;;;;;;170.10;53.65;;;;;;;;;;5047958;28;20167;-45
2024/01/01 09:06:17;;;;;;;199.75;61.70;;;;;;;;;;5043375;28;20177;-45
2024/01/01 09:08:43;;;;;;;215.70;67.90;;;;;;;;;;5039464;28;20198;-45
2024/01/01 09:11:09;;;;;;;211.87;67.13;;;;;;;;;;5051126;28;20547;-45
2024/01/01 09:13:35;;;;;;;212.23;61.77;;;;;;;;;;5033747;28;20394;-46
2024/01/01 09:16:02;;;;;;;210.30;64.27;;;;;;;;;;5033490;28;20862;-46
2024/01/01 09:18:28;;;;;;;217.30;69.63;;;;;;;;;;5047087;28;20406;-45
2024/01/01 09:20:54;;;;;;;213.30;62.80;;;;;;;;;;5043288;28;20198;-46
2024/01/01 09:23:20;;;;;;;211.52;62.58;;;;;;;;;;5039111;28;20421;-47
2024/01/01 09:25:46;;;;;;;206.23;60.97;;;;;;;;;;5051229;28;20174;-46
2024/01/01 09:28:12;;;;;;;207.27;62.57;;;;;;;;;;5033357;28;20952;-46
2024/01/01 09:30:38;;;;;;;213.23;64.67;;;;;;;;;;5045803;28;20473;-46
2024/01/01 09:33:04;;;;;;;211.67;61.57;;;;;;;;;;5046530;28;20412;-46
2024/01/01 09:35:30;;;;;;;200.43;58.65;;;;;;;;;;5043774;28;20445;-46
2024/01/01 09:37:57;;;;;;;207.60;64.80;;;;;;;;;;5038111;28;20215;-45
2024/01/01 09:40:23;;;;;;;148.95;53.45;;;;;;;;;;5051367;28;20432;-47
2024/01/01 09:42:49;;;;;;;150.73;49.30;;;;;;;;;;5033120;28;20224;-47
2024/01/01 09:45:15;;;;;;;190.35;57.33;;;;;;;;;;5049897;28;20424;-47
2024/01/01 09:47:42;;;;;;;195.77;58.90;;;;;;;;;;5039806;28;20182;-46
2024/01/01 09:50:08;;;;;;;211.52;62.97;;;;;;;;;;5041490;28;20456;-46
2024/01/01 09:52:34;;;;;;;205.20;65.60;;;;;;;;;;5047552;28;20269;-47
2024/01/01 09:55:00;;;;;;;195.32;61.92;;;;;;;;;;5029933;28;20217;-47
2024/01/01 09:57:27;;;;;;;208.27;66.68;;;;;;;;;;5032469;28;20178;-46
2024/01/01 09:59:53;;;;;;;19.17;17.83;;;;;;;;;;5032113;28;20222;-47
2024/01/01 10:02:22;;;;;;;137.23;46.37;;;;;;;;;;5032450;28;20178;-47
2024/01/01 10:04:48;;;;;;;209.85;59.53;;;;;;;;;;5034084;28;20967;-48
2024/01/01 10:07:27;;;;;;;144.33;47.60;;;;;;;;;;5032343;28;20258;-46
2024/01/01 10:09:53;;;;;;;86.95;35.97;;;;;;;;;;5032111;28;20480;-47
2024/01/01 10:12:21;;;;;;;15.10;13.90;;;;;;;;;;5032236;28;20639;-47
2024/01/01 10:14:48;;;;;;;212.38;66.03;;;;;;;;;;5032315;28;20421;-46
2024/01/01 10:17:15;;;;;;;200.30;58.80;;;;;;;;;;5032214;28;20176;-47
2024/01/01 10:19:50;;;;;;;102.03;34.63;;;;;;;;;;5032082;28;20285;-46
2024/01/01 10:22:18;;;;;;;197.05;59.83;;;;;;;;;;5032085;28;20483;-48
2024/01/01 10:24:44;;;;;;;216.05;68.05;;;;;;;;;;5032242;28;20255;-47
2024/01/01 10:27:10;;;;;;;159.75;50.53;;;;;;;;;;5032207;28;20171;-46
2024/01/01 10:29:37;;;;;;;212.32;63.58;;;;;;;;;;5031730;28;20208;-46
2024/01/01 10:32:04;;;;;;;179.38;54.17;;;;;;;;;;5032093;28;20183;-47
2024/01/01 10:34:31;;;;;;;213.20;62.35;;;;;;;;;;5031849;28;20159;-46
2024/01/01 10:36:58;;;;;;;206.77;60.35;;;;;;;;;;5032049;28;20221;-46
2024/01/01 10:39:24;;;;;;;211.63;63.30;;;;;;;;;;5031608;28;20226;-45
2024/01/01 10:41:51;;;;;;;215.13;65.22;;;;;;;;;;5031962;28;20178;-46
2024/01/01 10:44:17;;;;;;;212.18;73.57;;;;;;;;;;5031704;28;20205;-45
2024/01/01 10:46:47;;;;;;;203.02;71.25;;;;;;;;;;5031900;28;20256;-46
2024/01/01 10:49:17;;;;;;;189.52;61.00;;;;;;;;;;5031112;28;20202;-46
2024/01/01 10:52:02;;;;;;;212.02;61.53;;;;;;;;;;5031721;28;20220;-45
2024/01/01 10:54:41;;;;;;;210.35;61.78;;;;;;;;;;5028383;28;20245;-45
2024/01/01 10:57:13;;;;;;;210.93;63.45;;;;;;;;;;5025673;28;20183;-45
2024/01/01 10:59:59;;;;;;;209.07;65.20;;;;;;;;;;5031163;28;20215;-48
2024/01/01 11:02:27;;;;;;;184.40;59.58;;;;;;;;;;5020534;28;20569;-47
2024/01/01 11:05:09;;;;;;;202.00;60.47;;;;;;;;;;5031428;28;20232;-46
2024/01/01 11:07:54;;;;;;;193.73;61.13;;;;;;;;;;5025832;28;20236;-47
2024/01/01 11:10:38;;;;;;;212.98;65.07;;;;;;;;;;5030986;28;20207;-46
2024/01/01 11:13:05;;;;;;;216.88;71.10;;;;;;;;;;5031024;28;20175;-46
2024/01/01 11:15:41;;;;;;;205.93;64.32;;;;;;;;;;5031923;28;20258;-47
2024/01/01 11:18:13;;;;;;;197.48;62.95;;;;;;;;;;5036001;28;20608;-43
2024/01/01 11:20:48;;;;;;;17.27;16.02;;;;;;;;;;5035307;28;20666;-45
2024/01/01 11:23:33;;;;;;;197.25;67.28;;;;;;;;;;5036156;28;20174;-44
2024/01/01 11:25:59;;;;;;;207.15;70.85;;;;;;;;;;5032261;28;20221;-45
2024/01/01 11:28:43;;;;;;;204.80;68.40;;;;;;;;;;5033994;28;20287;-46
2024/01/01 11:31:09;;;;;;;205.15;66.32;;;;;;;;;;5035022;28;20213;-44
2024/01/01 11:33:35;;;;;;;190.60;65.43;;;;;;;;;;5035188;28;20221;-44
2024/01/01 11:36:11;;;;;;;132.17;57.93;;;;;;;;;;5034986;28;20210;-44
2024/01/01 11:38:37;;;;;;;206.10;65.25;;;;;;;;;;5034850;28;20421;-45
2024/01/01 11:41:04;;;;;;;212.15;67.90;;;;;;;;;;5034885;28;20662;-44
2024/01/01 11:43:30;;;;;;;198.75;63.97;;;;;;;;;;5034897;28;20179;-45
2024/01/01 11:45:56;;;;;;;194.77;68.77;;;;;;;;;;5035048;28;20550;-45
2024/01/01 11:48:22;;;;;;;123.00;45.60;;;;;;;;;;5034663;28;20775;-44
2024/01/01 11:50:49;;;;;;;153.95;52.38;;;;;;;;;;5034752;28;20247;-44
2024/01/01 11:53:18;;;;;;;19.15;17.52;;;;;;;;;;5029554;28;20638;-44
2024/01/01 11:55:44;;;;;;;13.52;12.52;;;;;;;;;;5024887;28;20262;-45
2024/01/01 11:58:10;;;;;;;14.67;13.50;;;;;;;;;;5033116;28;20609;-45
2024/01/01 12:00:36;;;;;;;65.25;30.27;;;;;;;;;;5034234;28;20448;-45
2024/01/01 12:03:06;;;;;;;178.52;58.90;;;;;;;;;;5031315;28;20187;-45
2024/01/01 12:05:33;;;;;;;189.27;59.28;;;;;;;;;;5034589;28;20182;-45
2024/01/01 12:08:00;;;;;;;160.38;57.25;;;;;;;;;;5034444;28;20194;-45
2024/01/01 12:10:27;;;;;;;210.57;65.97;;;;;;;;;;5033638;28;20207;-45
2024/01/01 12:13:02;;;;;;;203.38;68.65;;;;;;;;;;5027453;28;20547;-45
2024/01/01 12:15:31;;;;;;;158.90;58.15;;;;;;;;;;5031804;28;20221;-44
2024/01/01 12:17:57;;;;;;;185.48;63.25;;;;;;;;;;5032479;28;20221;-45
2024/01/01 12:20:24;;;;;;;148.87;55.77;;;;;;;;;;5033991;28;20203;-45
2024/01/01 12:22:50;;;;;;;156.35;56.67;;;;;;;;;;5038088;28;20812;-46
2024/01/01 12:25:17;;;;;;;42.05;38.90;;;;;;;;;;5032870;28;20233;-45
2024/01/01 12:27:44;;;;;;;42.05;22.65;;;;;;;;;;5033452;28;20285;-45
2024/01/01 12:30:24;;;;;;;16.98;15.77;;;;;;;;;;5033588;28;20211;-44
2024/01/01 12:32:50;;;;;;;17.52;16.30;;;;;;;;;;5033912;28;20182;-45
2024/01/01 12:35:16;;;;;;;183.87;61.60;;;;;;;;;;5033679;28;20183;-44
2024/01/01 12:37:41;;;;;;;114.33;41.27;;;;;;;;;;5033903;28;20421;-45
2024/01/01 12:40:08;;;;;;;142.90;57.33;;;;;;;;;;5033615;28;20476;-45
2024/01/01 12:42:34;;;;;;;184.88;58.53;;;;;;;;;;5033808;28;20413;-45
2024/01/01 12:44:59;;;;;;;123.67;47.43;;;;;;;;;;5034299;28;20229;-45
2024/01/01 12:47:25;;;;;;;214.20;66.57;;;;;;;;;;5026209;28;20410;-45
2024/01/01 12:49:51;;;;;;;69.50;43.13;;;;;;;;;;5033796;28;20493;-45
2024/01/01 12:52:18;;;;;;;107.87;48.37;;;;;;;;;;5033895;28;20921;-45
2024/01/01 12:54:44;;;;;;;176.88;66.88;;;;;;;;;;5033546;28;20429;-45
2024/01/01 12:57:10;;;;;;;216.47;67.30;;;;;;;;;;5033577;28;20167;-45
2024/01/01 12:59:36;;;;;;;200.80;63.30;;;;;;;;;;5033227;28;20536;-44
2024/01/01 13:02:02;;;;;;;203.80;67.10;;;;;;;;;;5033371;28;20438;-44
2024/01/01 13:04:28;;;;;;;236.87;84.30;;;;;;;;;;5032305;28;20679;-45
2024/01/01 13:06:54;;;;;;;24.13;22.48;;;;;;;;;;5033409;28;20418;-44
2024/01/01 13:09:20;;;;;;;22.15;20.65;;;;;;;;;;5033144;28;20195;-45
2024/01/01 13:11:46;;;;;;;17.20;15.93;;;;;;;;;;5033456;28;20182;-45
2024/01/01 13:14:12;;;;;;;14.33;13.17;;;;;;;;;;5033361;28;20179;-45
2024/01/01 13:16:38;;;;;;;16.27;15.07;;;;;;;;;;5033224;28;20418;-45
2024/01/01 13:19:04;;;;;;;18.10;16.77;;;;;;;;;;5032865;28;20434;-45
2024/01/01 13:21:30;;;;;;;17.73;16.30;;;;;;;;;;5033126;28;20428;-46
2024/01/01 13:23:58;;;;;;;16.40;15.10;;;;;;;;;;5033210;28;20414;-45
2024/01/01 13:26:25;;;;;;;18.58;17.30;;;;;;;;;;5033418;28;20172;-45
2024/01/01 13:28:52;;;;;;;17.05;15.88;;;;;;;;;;5032697;28;20211;-45
2024/01/01 13:31:18;;;;;;;17.02;15.85;;;;;;;;;;5032983;28;20611;-45
2024/01/01 13:33:44;;;;;;;21.02;19.42;;;;;;;;;;5032703;28;20198;-45
2024/01/01 13:36:10;;;;;;;18.57;17.23;;;;;;;;;;5032923;28;20203;-45
2024/01/01 13:38:38;;;;;;;22.40;20.67;;;;;;;;;;5032158;28;20925;-45
2024/01/01 13:41:04;;;;;;;20.23;18.98;;;;;;;;;;5032243;28;20402;-45
2024/01/01 13:43:30;;;;;;;16.33;15.18;;;;;;;;;;5032913;28;20536;-45
2024/01/01 13:45:56;;;;;;;24.23;22.70;;;;;;;;;;5050146;28;20258;-45
2024/01/01 13:48:22;;;;;;;20.83;19.17;;;;;;;;;;5037857;28;20780;-44
2024/01/01 13:50:49;;;;;;;18.55;17.25;;;;;;;;;;5032608;28;20821;-45
2024/01/01 13:53:15;;;;;;;80.53;33.13;;;;;;;;;;5032664;28;20172;-45
2024/01/01 13:55:41;;;;;;;77.03;52.65;;;;;;;;;;5032487;28;20171;-45
2024/01/01 13:58:07;;;;;;;32.15;29.70;;;;;;;;;;5032488;28;20174;-46
2024/01/01 14:00:37;;;;;;;17.47;16.27;;;;;;;;;;5031944;28;20207;-45
2024/01/01 14:03:03;;;;;;;18.83;17.27;;;;;;;;;;5029479;28;20418;-45
2024/01/01 14:05:30;;;;;;;14.82;13.68;;;;;;;;;;5031148;28;20175;-45
2024/01/01 14:07:56;;;;;;;14.60;13.52;;;;;;;;;;5032366;28;20562;-45
2024/01/01 14:10:24;;;;;;;15.90;14.80;;;;;;;;;;5031788;28;20188;-45